createdAt,value
2022-08-28T00:01:08.116Z,101781.34
2022-08-28T00:03:54.794Z,101781.66
2022-08-28T00:06:39.957Z,101787.59
2022-08-28T00:09:25.425Z,101791.63
2022-08-28T00:12:12.380Z,101784.44
2022-08-28T00:14:57.548Z,101773.25
2022-08-28T00:17:42.580Z,101777.88
2022-08-28T00:20:28.859Z,101774.06
2022-08-28T00:23:14.934Z,101782.41
2022-08-28T00:26:00.592Z,101778.06
2022-08-28T00:28:45.556Z,101777.56
2022-08-28T00:31:30.638Z,101777.34
2022-08-28T00:34:15.957Z,101778.28
2022-08-28T00:37:01.557Z,101748.97
2022-08-28T00:39:47.834Z,101770.28
2022-08-28T00:42:38.332Z,101771.56
2022-08-28T00:45:25.384Z,101769.84
2022-08-28T00:48:10.886Z,101774.38
2022-08-28T00:51:16.117Z,101766.59
2022-08-28T00:54:06.862Z,101771.03
2022-08-28T00:56:55.081Z,101765.31
2022-08-28T00:59:40.351Z,101765.31
2022-08-28T01:02:26.539Z,101768.78
2022-08-28T01:05:13.653Z,101775.72
2022-08-28T01:07:59.340Z,101772.34
2022-08-28T01:10:50.327Z,101769.53
2022-08-28T01:13:39.666Z,101761.72
2022-08-28T01:16:31.676Z,101771.09
2022-08-28T01:19:28.829Z,101778.16
2022-08-28T01:22:37.336Z,101775.72
2022-08-28T01:25:24.669Z,101762.34
2022-08-28T01:28:12.626Z,101774.25
2022-08-28T01:30:58.314Z,101752.50
2022-08-28T01:33:45.108Z,101778.03
2022-08-28T01:36:31.184Z,101773.19
2022-08-28T01:39:20.457Z,101776.97
2022-08-28T01:42:06.821Z,101765.16
2022-08-28T01:44:54.104Z,101767.25
2022-08-28T01:47:42.352Z,101770.81
2022-08-28T01:50:27.464Z,101762.81
2022-08-28T01:53:16.390Z,101770.81
2022-08-28T01:56:04.829Z,101771.56
2022-08-28T01:58:49.959Z,101765.75
2022-08-28T02:01:35.729Z,101760.91
2022-08-28T02:04:21.180Z,101751.81
2022-08-28T02:07:16.907Z,101768.59
2022-08-28T02:10:02.811Z,101766.16
2022-08-28T02:12:49.236Z,101765.31
2022-08-28T02:15:36.523Z,101761.94
2022-08-28T02:18:21.800Z,101758.13
2022-08-28T02:21:08.129Z,101761.81
2022-08-28T02:23:54.301Z,101760.59
2022-08-28T02:26:39.609Z,101763.75
2022-08-28T02:29:27.069Z,101761.44
2022-08-28T02:32:12.451Z,101762.28
2022-08-28T02:34:57.674Z,101757.97
2022-08-28T02:37:44.373Z,101764.41
2022-08-28T02:40:30.395Z,101763.16
2022-08-28T02:43:15.534Z,101758.59
2022-08-28T02:46:00.945Z,101770.16
2022-08-28T02:48:46.085Z,101755.59
2022-08-28T02:51:33.497Z,101757.94
2022-08-28T02:54:18.654Z,101760.47
2022-08-28T02:57:03.694Z,101758.69
2022-08-28T02:59:48.998Z,101739.16
2022-08-28T03:02:34.161Z,101753.03
2022-08-28T03:05:23.318Z,101761.56
2022-08-28T03:08:08.419Z,101747.56
2022-08-28T03:10:53.729Z,101761.22
2022-08-28T03:13:39.126Z,101756.31
2022-08-28T03:16:25.379Z,101766.28
2022-08-28T03:19:10.405Z,101770.03
2022-08-28T03:21:55.641Z,101764.28
2022-08-28T03:24:41.383Z,101771.63
2022-08-28T03:27:26.559Z,101753.94
2022-08-28T03:30:12.382Z,101766.81
2022-08-28T03:32:57.710Z,101759.00
2022-08-28T03:35:42.992Z,101763.31
2022-08-28T03:38:28.211Z,101766.72
2022-08-28T03:41:17.364Z,101765.81
2022-08-28T03:44:02.927Z,101764.88
2022-08-28T03:46:47.837Z,101763.75
2022-08-28T03:49:32.907Z,101761.00
2022-08-28T03:52:17.992Z,101762.22
2022-08-28T03:55:04.467Z,101762.28
2022-08-28T03:57:49.340Z,101757.13
2022-08-28T04:00:35.360Z,101753.66
2022-08-28T04:03:20.742Z,101755.34
2022-08-28T04:06:06.191Z,101744.47
2022-08-28T04:08:51.326Z,101761.00
2022-08-28T04:11:43.858Z,101755.19
2022-08-28T04:14:28.911Z,101747.13
2022-08-28T04:17:14.535Z,101760.84
2022-08-28T04:19:59.768Z,101753.72
2022-08-28T04:22:45.252Z,101746.22
2022-08-28T04:25:31.642Z,101757.47
2022-08-28T04:28:17.620Z,101769.59
2022-08-28T04:31:03.289Z,101764.53
2022-08-28T04:33:48.285Z,101765.19
2022-08-28T04:36:33.762Z,101767.91
2022-08-28T04:39:19.556Z,101765.56
2022-08-28T04:42:05.009Z,101750.16
2022-08-28T04:44:50.421Z,101759.47
2022-08-28T04:47:37.939Z,101763.50
2022-08-28T04:50:22.818Z,101767.28
2022-08-28T04:53:08.278Z,101768.75
2022-08-28T04:55:55.217Z,101771.28
2022-08-28T04:58:42.481Z,101768.66
2022-08-28T05:01:27.619Z,101777.69
2022-08-28T05:04:13.170Z,101775.31
2022-08-28T05:06:58.243Z,101779.75
2022-08-28T05:09:43.599Z,101786.06
2022-08-28T05:12:28.512Z,101783.91
2022-08-28T05:15:13.971Z,101776.91
2022-08-28T05:17:59.497Z,101787.94
2022-08-28T05:20:46.444Z,101783.06
2022-08-28T05:23:31.638Z,101798.16
2022-08-28T05:26:19.013Z,101794.31
2022-08-28T05:29:05.574Z,101796.00
2022-08-28T05:31:50.516Z,101795.59
2022-08-28T05:34:35.978Z,101784.34
2022-08-28T05:37:21.287Z,101795.22
2022-08-28T05:40:07.265Z,101792.25
2022-08-28T05:42:52.594Z,101793.06
2022-08-28T05:45:37.843Z,101806.13
2022-08-28T05:48:23.312Z,101814.22
2022-08-28T05:51:13.442Z,101797.50
2022-08-28T05:53:58.916Z,101812.69
2022-08-28T05:56:46.021Z,101808.94
2022-08-28T05:59:31.267Z,101803.31
2022-08-28T06:02:16.653Z,101821.50
2022-08-28T06:05:02.024Z,101824.69
2022-08-28T06:07:46.974Z,101822.72
2022-08-28T06:10:32.292Z,101834.09
2022-08-28T06:13:17.637Z,101834.94
2022-08-28T06:16:05.341Z,101840.84
2022-08-28T06:18:53.498Z,101847.41
2022-08-28T06:21:41.465Z,101848.50
2022-08-28T06:24:28.152Z,101846.97
2022-08-28T06:27:13.179Z,101845.50
2022-08-28T06:29:58.700Z,101854.59
2022-08-28T06:32:43.770Z,101854.22
2022-08-28T06:35:28.761Z,101851.16
2022-08-28T06:38:14.658Z,101850.75
2022-08-28T06:41:00.088Z,101852.78
2022-08-28T06:43:45.104Z,101849.63
2022-08-28T06:46:33.145Z,101836.31
2022-08-28T06:49:18.517Z,101854.31
2022-08-28T06:52:03.573Z,101845.66
2022-08-28T06:54:55.297Z,101859.88
2022-08-28T06:57:41.217Z,101863.66
2022-08-28T07:00:26.657Z,101853.38
2022-08-28T07:03:12.432Z,101845.78
2022-08-28T07:05:59.151Z,101853.13
2022-08-28T07:08:44.595Z,101854.22
2022-08-28T07:11:31.633Z,101854.97
2022-08-28T07:14:17.157Z,101851.53
2022-08-28T07:17:02.360Z,101845.84
2022-08-28T07:19:47.509Z,101851.22
2022-08-28T07:22:33.293Z,101863.25
2022-08-28T07:25:18.373Z,101849.66
2022-08-28T07:28:05.538Z,101854.59
2022-08-28T07:31:03.457Z,101875.06
2022-08-28T07:33:50.859Z,101859.41
2022-08-28T07:36:40.047Z,101874.72
2022-08-28T07:39:25.211Z,101869.78
2022-08-28T07:42:33.926Z,101869.97
2022-08-28T07:45:21.182Z,101869.25
2022-08-28T07:48:11.291Z,101852.09
2022-08-28T07:50:57.061Z,101863.78
2022-08-28T07:53:42.265Z,101867.44
2022-08-28T07:56:29.939Z,101857.19
2022-08-28T07:59:17.402Z,101866.81
2022-08-28T08:02:05.498Z,101862.25
2022-08-28T08:04:50.694Z,101865.97
2022-08-28T08:07:39.840Z,101869.69
2022-08-28T08:10:27.259Z,101870.53
2022-08-28T08:13:18.985Z,101877.63
2022-08-28T08:16:11.881Z,101876.78
2022-08-28T08:18:57.702Z,101882.19
2022-08-28T08:21:45.719Z,101874.50
2022-08-28T08:24:31.268Z,101882.91
2022-08-28T08:27:16.530Z,101884.22
2022-08-28T08:30:01.829Z,101883.41
2022-08-28T08:32:47.085Z,101886.88
2022-08-28T08:35:32.481Z,101884.13
2022-08-28T08:38:17.569Z,101889.28
2022-08-28T08:41:13.781Z,101864.63
2022-08-28T08:44:17.593Z,101881.56
2022-08-28T08:47:14.903Z,101886.72
2022-08-28T08:50:09.355Z,101884.38
2022-08-28T08:53:06.641Z,101892.41
2022-08-28T08:55:54.329Z,101897.41
2022-08-28T08:58:42.419Z,101891.78
2022-08-28T09:01:41.592Z,101902.53
2022-08-28T09:04:34.398Z,101894.38
2022-08-28T09:07:25.292Z,101897.13
2022-08-28T09:10:12.459Z,101894.19
2022-08-28T09:13:13.909Z,101890.28
2022-08-28T09:16:00.174Z,101897.94
2022-08-28T09:18:45.863Z,101893.41
2022-08-28T09:21:34.370Z,101896.66
2022-08-28T09:24:29.734Z,101894.00
2022-08-28T09:27:25.993Z,101888.31
2022-08-28T09:30:11.439Z,101884.84
2022-08-28T09:33:01.022Z,101893.47
2022-08-28T09:35:45.990Z,101870.66
2022-08-28T09:38:31.165Z,101890.16
2022-08-28T09:41:35.102Z,101888.78
2022-08-28T09:44:20.618Z,101887.78
2022-08-28T09:47:05.658Z,101877.69
2022-08-28T09:49:50.821Z,101876.41
2022-08-28T09:52:36.058Z,101886.94
2022-08-28T09:55:56.985Z,101886.25
2022-08-28T09:58:48.705Z,101893.13
2022-08-28T10:01:49.132Z,101896.22
2022-08-28T10:04:43.454Z,101893.09
2022-08-28T10:07:56.677Z,101886.81
2022-08-28T10:10:47.962Z,101880.78
2022-08-28T10:13:47.179Z,101883.44
2022-08-28T10:16:51.051Z,101879.94
2022-08-28T10:19:48.193Z,101881.88
2022-08-28T10:22:36.372Z,101879.66
2022-08-28T10:25:46.325Z,101878.00
2022-08-28T10:28:50.262Z,101875.19
2022-08-28T10:31:52.613Z,101875.84
2022-08-28T10:34:49.830Z,101870.09
2022-08-28T10:37:59.852Z,101870.75
2022-08-28T10:41:17.388Z,101881.31
2022-08-28T10:44:05.174Z,101881.19
2022-08-28T10:46:55.563Z,101858.34
2022-08-28T10:49:44.253Z,101877.97
2022-08-28T10:52:45.200Z,101879.66
2022-08-28T10:55:37.544Z,101889.91
2022-08-28T10:58:25.998Z,101868.19
2022-08-28T11:01:24.852Z,101880.63
2022-08-28T11:04:25.511Z,101887.66
2022-08-28T11:07:19.901Z,101870.69
2022-08-28T11:10:34.879Z,101871.25
2022-08-28T11:13:42.983Z,101857.63
2022-08-28T11:16:28.096Z,101869.44
2022-08-28T11:19:22.734Z,101868.78
2022-08-28T11:22:17.729Z,101867.66
2022-08-28T11:25:34.293Z,101861.16
2022-08-28T11:28:24.045Z,101860.44
2022-08-28T11:31:09.984Z,101846.34
2022-08-28T11:34:00.117Z,101851.66
2022-08-28T11:36:45.201Z,101863.53
2022-08-28T11:39:30.425Z,101861.59
2022-08-28T11:42:34.339Z,101859.84
2022-08-28T11:45:22.146Z,101841.50
2022-08-28T11:48:07.306Z,101859.63
2022-08-28T11:51:03.285Z,101870.41
2022-08-28T11:53:59.793Z,101872.50
2022-08-28T11:57:06.249Z,101872.09
2022-08-28T12:00:29.108Z,101873.97
2022-08-28T12:03:24.352Z,101863.41
2022-08-28T12:06:10.873Z,101871.31
2022-08-28T12:08:58.984Z,101877.47
2022-08-28T12:11:43.852Z,101853.66
2022-08-28T12:14:28.860Z,101868.63
2022-08-28T12:17:16.803Z,101862.03
2022-08-28T12:20:10.219Z,101860.75
2022-08-28T12:23:01.490Z,101864.19
2022-08-28T12:25:47.311Z,101848.47
2022-08-28T12:29:03.423Z,101866.28
2022-08-28T12:32:07.041Z,101871.09
2022-08-28T12:34:57.907Z,101871.97
2022-08-28T12:37:52.823Z,101872.78
2022-08-28T12:40:41.682Z,101863.78
2022-08-28T12:43:35.783Z,101853.50
2022-08-28T12:46:30.994Z,101869.84
2022-08-28T12:49:37.580Z,101855.00
2022-08-28T12:52:25.360Z,101866.31
2022-08-28T12:55:10.781Z,101860.56
2022-08-28T12:57:56.152Z,101867.97
2022-08-28T13:00:56.623Z,101851.16
2022-08-28T13:03:54.694Z,101869.84
2022-08-28T13:06:39.805Z,101870.25
2022-08-28T13:09:28.282Z,101873.00
2022-08-28T13:12:55.951Z,101869.75
2022-08-28T13:15:48.852Z,101862.72
2022-08-28T13:18:43.054Z,101871.56
2022-08-28T13:21:33.972Z,101874.41
2022-08-28T13:24:42.389Z,101884.72
2022-08-28T13:27:28.173Z,101872.91
2022-08-28T13:30:20.053Z,101877.16
2022-08-28T13:33:23.674Z,101871.44
2022-08-28T13:36:24.718Z,101857.97
2022-08-28T13:39:09.987Z,101862.28
2022-08-28T13:41:58.434Z,101859.88
2022-08-28T13:44:48.748Z,101858.75
2022-08-28T13:47:33.696Z,101863.78
2022-08-28T13:50:19.088Z,101852.09
2022-08-28T13:53:04.261Z,101856.56
2022-08-28T13:55:50.441Z,101874.47
2022-08-28T13:58:35.337Z,101852.31
2022-08-28T14:01:24.421Z,101864.75
2022-08-28T14:04:19.593Z,101868.31
2022-08-28T14:07:04.736Z,101855.47
2022-08-28T14:09:55.473Z,101852.19
2022-08-28T14:12:43.124Z,101845.41
2022-08-28T14:15:28.319Z,101842.03
2022-08-28T14:18:13.539Z,101852.81
2022-08-28T14:20:58.670Z,101853.44
2022-08-28T14:23:43.890Z,101840.41
2022-08-28T14:26:30.253Z,101854.47
2022-08-28T14:29:17.747Z,101844.75
2022-08-28T14:32:04.182Z,101839.41
2022-08-28T14:34:50.634Z,101847.59
2022-08-28T14:37:35.937Z,101838.38
2022-08-28T14:40:20.974Z,101842.41
2022-08-28T14:43:07.344Z,101843.44
2022-08-28T14:45:52.611Z,101841.66
2022-08-28T14:48:37.778Z,101846.25
2022-08-28T14:51:23.468Z,101844.72
2022-08-28T14:54:11.517Z,101838.75
2022-08-28T14:56:56.473Z,101846.06
2022-08-28T14:59:41.653Z,101848.44
2022-08-28T15:02:27.021Z,101838.41
2022-08-28T15:05:12.177Z,101850.03
2022-08-28T15:07:57.470Z,101854.84
2022-08-28T15:10:44.491Z,101853.28
2022-08-28T15:13:31.544Z,101853.00
2022-08-28T15:16:20.849Z,101851.47
2022-08-28T15:19:06.982Z,101852.16
2022-08-28T15:21:54.974Z,101839.28
2022-08-28T15:24:40.488Z,101855.56
2022-08-28T15:27:25.636Z,101845.47
2022-08-28T15:30:11.653Z,101848.25
2022-08-28T15:32:58.026Z,101853.06
2022-08-28T15:35:43.027Z,101867.88
2022-08-28T15:38:28.315Z,101852.59
2022-08-28T15:41:25.790Z,101858.03
2022-08-28T15:44:14.961Z,101855.06
2022-08-28T15:47:02.294Z,101848.72
2022-08-28T15:49:54.279Z,101849.72
2022-08-28T15:52:40.883Z,101860.09
2022-08-28T15:55:27.794Z,101850.66
2022-08-28T15:58:14.281Z,101839.06
2022-08-28T16:00:59.597Z,101853.19
2022-08-28T16:03:44.735Z,101856.50
2022-08-28T16:06:30.042Z,101860.50
2022-08-28T16:09:15.331Z,101856.53
2022-08-28T16:12:00.510Z,101858.16
2022-08-28T16:14:45.922Z,101852.06
2022-08-28T16:17:31.230Z,101850.41
2022-08-28T16:20:16.569Z,101849.00
2022-08-28T16:23:02.077Z,101847.31
2022-08-28T16:25:47.172Z,101849.72
2022-08-28T16:28:33.307Z,101851.66
2022-08-28T16:31:20.639Z,101849.47
2022-08-28T16:34:06.452Z,101848.88
2022-08-28T16:36:55.358Z,101853.13
2022-08-28T16:39:40.372Z,101849.25
2022-08-28T16:42:28.590Z,101830.28
2022-08-28T16:45:16.629Z,101838.28
2022-08-28T16:48:01.557Z,101843.94
2022-08-28T16:50:47.029Z,101840.03
2022-08-28T16:53:32.709Z,101842.16
2022-08-28T16:56:17.865Z,101844.13
2022-08-28T16:59:04.156Z,101838.56
2022-08-28T17:01:55.426Z,101836.34
2022-08-28T17:04:40.447Z,101841.69
2022-08-28T17:07:26.201Z,101839.09
2022-08-28T17:10:14.174Z,101838.13
2022-08-28T17:12:59.553Z,101840.13
2022-08-28T17:15:44.936Z,101841.00
2022-08-28T17:18:30.282Z,101835.94
2022-08-28T17:21:34.026Z,101843.75
2022-08-28T17:24:19.597Z,101841.31
2022-08-28T17:27:05.861Z,101839.06
2022-08-28T17:29:51.615Z,101840.09
2022-08-28T17:32:37.246Z,101835.50
2022-08-28T17:35:22.801Z,101834.28
2022-08-28T17:38:08.739Z,101844.94
2022-08-28T17:40:54.060Z,101843.28
2022-08-28T17:43:39.463Z,101850.03
2022-08-28T17:46:25.677Z,101831.03
2022-08-28T17:49:11.433Z,101842.38
2022-08-28T17:51:56.715Z,101845.59
2022-08-28T17:54:41.976Z,101850.78
2022-08-28T17:57:30.479Z,101844.75
2022-08-28T18:00:16.497Z,101840.03
2022-08-28T18:03:01.624Z,101853.63
2022-08-28T18:05:46.951Z,101850.84
2022-08-28T18:08:32.226Z,101860.34
2022-08-28T18:11:19.156Z,101856.72
2022-08-28T18:14:04.538Z,101863.72
2022-08-28T18:16:49.602Z,101855.03
2022-08-28T18:19:34.771Z,101864.28
2022-08-28T18:22:20.074Z,101867.53
2022-08-28T18:25:06.640Z,101868.78
2022-08-28T18:27:51.864Z,101865.41
2022-08-28T18:30:37.097Z,101869.47
2022-08-28T18:33:24.100Z,101872.81
2022-08-28T18:36:11.698Z,101867.34
2022-08-28T18:38:57.500Z,101876.56
2022-08-28T18:41:43.866Z,101871.09
2022-08-28T18:44:31.849Z,101868.28
2022-08-28T18:47:17.812Z,101875.94
2022-08-28T18:50:05.062Z,101873.00
2022-08-28T18:52:51.890Z,101878.84
2022-08-28T18:55:37.194Z,101875.91
2022-08-28T18:58:23.814Z,101889.59
2022-08-28T19:01:09.409Z,101882.28
2022-08-28T19:03:55.410Z,101883.38
2022-08-28T19:06:41.032Z,101895.78
2022-08-28T19:09:32.112Z,101892.81
2022-08-28T19:12:17.613Z,101883.84
2022-08-28T19:15:03.446Z,101884.22
2022-08-28T19:17:49.044Z,101880.75
2022-08-28T19:20:34.784Z,101885.41
2022-08-28T19:23:19.929Z,101882.91
2022-08-28T19:26:06.676Z,101887.88
2022-08-28T19:28:52.101Z,101889.84
2022-08-28T19:31:37.595Z,101887.59
2022-08-28T19:34:23.702Z,101887.84
2022-08-28T19:37:08.861Z,101887.13
2022-08-28T19:39:57.371Z,101889.44
2022-08-28T19:42:42.731Z,101893.47
2022-08-28T19:45:27.838Z,101896.97
2022-08-28T19:48:14.182Z,101903.13
2022-08-28T19:51:04.568Z,101906.88
2022-08-28T19:53:57.916Z,101915.94
2022-08-28T19:56:43.821Z,101907.53
2022-08-28T19:59:28.993Z,101909.19
2022-08-28T20:02:14.271Z,101924.16
2022-08-28T20:04:59.457Z,101916.47
2022-08-28T20:07:44.724Z,101917.66
2022-08-28T20:10:31.552Z,101924.06
2022-08-28T20:13:17.915Z,101926.72
2022-08-28T20:16:05.046Z,101909.03
2022-08-28T20:18:50.446Z,101929.19
2022-08-28T20:21:38.388Z,101928.59
2022-08-28T20:24:24.902Z,101923.53
2022-08-28T20:27:09.990Z,101921.13
2022-08-28T20:29:55.111Z,101923.19
2022-08-28T20:32:41.682Z,101927.06
2022-08-28T20:35:27.561Z,101922.88
2022-08-28T20:38:13.690Z,101932.13
2022-08-28T20:41:24.810Z,101919.63
2022-08-28T20:44:12.826Z,101934.34
2022-08-28T20:46:58.416Z,101932.78
2022-08-28T20:49:43.631Z,101934.22
2022-08-28T20:52:28.670Z,101924.81
2022-08-28T20:55:14.193Z,101933.97
2022-08-28T20:57:59.119Z,101949.53
2022-08-28T21:00:44.709Z,101929.88
2022-08-28T21:03:30.104Z,101947.25
2022-08-28T21:06:15.302Z,101934.00
2022-08-28T21:09:00.614Z,101935.69
2022-08-28T21:11:46.200Z,101938.84
2022-08-28T21:14:31.307Z,101944.59
2022-08-28T21:17:16.888Z,101937.03
2022-08-28T21:20:15.271Z,101943.78
2022-08-28T21:23:00.391Z,101944.97
2022-08-28T21:25:45.513Z,101940.75
2022-08-28T21:28:30.485Z,101946.53
2022-08-28T21:31:15.740Z,101930.53
2022-08-28T21:34:00.894Z,101939.81
2022-08-28T21:36:50.379Z,101931.59
2022-08-28T21:39:36.073Z,101911.84
2022-08-28T21:42:20.977Z,101914.50
2022-08-28T21:45:11.858Z,101933.78
2022-08-28T21:47:57.804Z,101928.94
2022-08-28T21:50:43.106Z,101918.22
2022-08-28T21:53:28.506Z,101934.47
2022-08-28T21:56:26.023Z,101931.94
2022-08-28T21:59:11.404Z,101919.28
2022-08-28T22:01:57.311Z,101915.53
2022-08-28T22:04:43.028Z,101934.56
2022-08-28T22:07:28.358Z,101931.75
2022-08-28T22:10:13.976Z,101937.53
2022-08-28T22:12:58.930Z,101941.91
2022-08-28T22:15:46.042Z,101944.31
2022-08-28T22:18:32.109Z,101943.59
2022-08-28T22:21:41.724Z,101945.28
2022-08-28T22:24:27.195Z,101955.75
2022-08-28T22:27:13.504Z,101953.09
2022-08-28T22:29:58.718Z,101944.66
2022-08-28T22:32:45.278Z,101955.34
2022-08-28T22:35:30.405Z,101946.66
2022-08-28T22:38:15.701Z,101949.56
2022-08-28T22:41:00.819Z,101946.91
2022-08-28T22:43:48.179Z,101935.59
2022-08-28T22:46:35.888Z,101945.22
2022-08-28T22:49:21.072Z,101947.25
2022-08-28T22:52:06.273Z,101950.75
2022-08-28T22:54:53.147Z,101941.13
2022-08-28T22:57:38.583Z,101943.91
2022-08-28T23:00:26.509Z,101943.63
2022-08-28T23:03:11.953Z,101947.47
2022-08-28T23:05:58.275Z,101934.97
2022-08-28T23:08:43.978Z,101932.41
2022-08-28T23:11:29.045Z,101944.97
2022-08-28T23:14:14.826Z,101926.19
2022-08-28T23:17:00.014Z,101919.66
2022-08-28T23:19:48.020Z,101925.53
2022-08-28T23:22:34.165Z,101943.84
2022-08-28T23:25:22.817Z,101954.66
2022-08-28T23:28:08.009Z,101931.16
2022-08-28T23:30:53.288Z,101957.03
2022-08-28T23:33:38.704Z,101955.47
2022-08-28T23:36:23.986Z,101955.69
2022-08-28T23:39:09.557Z,101959.16
2022-08-28T23:41:55.014Z,101953.28
2022-08-28T23:44:40.189Z,101964.94
2022-08-28T23:47:25.613Z,101953.94
2022-08-28T23:50:18.071Z,101939.50
2022-08-28T23:53:04.423Z,101944.66
2022-08-28T23:55:50.052Z,101949.78
2022-08-28T23:58:35.821Z,101944.75
